createdAt,value
2018-05-29T00:02:20.443Z,20.57
2018-05-29T00:04:48.102Z,20.56
2018-05-29T00:07:15.739Z,20.56
2018-05-29T00:09:43.358Z,20.56
2018-05-29T00:12:10.987Z,20.57
2018-05-29T00:14:38.603Z,20.59
2018-05-29T00:17:06.315Z,20.60
2018-05-29T00:19:33.927Z,20.61
2018-05-29T00:22:01.567Z,20.63
2018-05-29T00:24:29.178Z,20.63
2018-05-29T00:26:56.815Z,20.64
2018-05-29T00:29:24.426Z,20.64
2018-05-29T00:31:52.063Z,20.67
2018-05-29T00:34:19.682Z,20.68
2018-05-29T00:36:47.325Z,20.71
2018-05-29T00:39:14.941Z,20.74
2018-05-29T00:41:42.578Z,20.75
2018-05-29T00:44:10.190Z,20.76
2018-05-29T00:46:37.859Z,20.77
2018-05-29T00:49:05.510Z,20.79
2018-05-29T00:51:33.170Z,20.81
2018-05-29T00:54:00.835Z,20.82
2018-05-29T00:56:28.472Z,20.84
2018-05-29T00:58:56.162Z,20.85
2018-05-29T01:01:23.805Z,20.86
2018-05-29T01:03:51.423Z,20.86
2018-05-29T01:06:19.148Z,20.87
2018-05-29T01:08:46.767Z,20.88
2018-05-29T01:11:14.398Z,20.89
2018-05-29T01:13:42.011Z,20.89
2018-05-29T01:16:09.655Z,20.91
2018-05-29T01:18:37.278Z,20.92
2018-05-29T01:21:04.923Z,20.92
2018-05-29T01:23:32.558Z,20.91
2018-05-29T01:26:00.174Z,20.91
2018-05-29T01:28:27.803Z,20.90
2018-05-29T01:30:55.422Z,20.89
2018-05-29T01:33:23.059Z,20.88
2018-05-29T01:35:50.677Z,20.86
2018-05-29T01:38:18.314Z,20.86
2018-05-29T01:40:45.929Z,20.86
2018-05-29T01:43:13.567Z,20.85
2018-05-29T01:45:41.230Z,20.84
2018-05-29T01:48:08.866Z,20.83
2018-05-29T01:50:36.558Z,20.82
2018-05-29T01:53:04.227Z,20.80
2018-05-29T01:55:31.842Z,20.78
2018-05-29T01:57:59.488Z,20.77
2018-05-29T02:00:27.112Z,20.75
2018-05-29T02:02:54.749Z,20.74
2018-05-29T02:05:22.425Z,20.73
2018-05-29T02:07:50.095Z,20.71
2018-05-29T02:10:17.746Z,20.67
2018-05-29T02:12:45.379Z,20.62
2018-05-29T02:15:12.990Z,20.58
2018-05-29T02:17:40.734Z,20.53
2018-05-29T02:20:08.360Z,20.50
2018-05-29T02:22:36.008Z,20.46
2018-05-29T02:25:03.628Z,20.43
2018-05-29T02:27:31.270Z,20.39
2018-05-29T02:29:58.886Z,20.34
2018-05-29T02:32:26.534Z,20.28
2018-05-29T02:34:54.169Z,20.21
2018-05-29T02:37:21.832Z,20.16
2018-05-29T02:39:49.476Z,20.12
2018-05-29T02:42:17.104Z,20.08
2018-05-29T02:44:44.747Z,20.03
2018-05-29T02:47:12.359Z,20.00
2018-05-29T02:49:40.038Z,19.98
2018-05-29T02:52:07.651Z,19.96
2018-05-29T02:54:35.367Z,19.93
2018-05-29T02:57:02.987Z,19.90
2018-05-29T02:59:30.700Z,19.86
2018-05-29T03:01:58.454Z,19.83
2018-05-29T03:04:26.092Z,19.80
2018-05-29T03:06:53.708Z,19.78
2018-05-29T03:09:21.349Z,19.77
2018-05-29T03:11:48.998Z,19.77
2018-05-29T03:14:16.668Z,19.75
2018-05-29T03:16:44.278Z,19.75
2018-05-29T03:19:11.992Z,19.75
2018-05-29T03:21:39.601Z,19.77
2018-05-29T03:24:07.320Z,19.77
2018-05-29T03:26:34.994Z,19.77
2018-05-29T03:29:02.659Z,19.77
2018-05-29T03:31:30.303Z,19.76
2018-05-29T03:33:57.934Z,19.76
2018-05-29T03:36:25.556Z,19.77
2018-05-29T03:38:53.199Z,19.78
2018-05-29T03:41:20.851Z,19.79
2018-05-29T03:43:48.516Z,19.80
2018-05-29T03:46:16.129Z,19.82
2018-05-29T03:48:43.789Z,19.84
2018-05-29T03:51:11.494Z,19.85
2018-05-29T03:53:39.115Z,19.89
2018-05-29T03:56:06.824Z,19.99
2018-05-29T03:58:34.447Z,20.22
2018-05-29T04:01:03.791Z,20.50
2018-05-29T04:03:31.402Z,20.81
2018-05-29T04:05:59.033Z,21.14
2018-05-29T04:08:26.644Z,21.48
2018-05-29T04:10:54.700Z,21.81
2018-05-29T04:13:22.325Z,22.13
2018-05-29T04:15:49.996Z,22.43
2018-05-29T04:18:17.631Z,22.71
2018-05-29T04:20:45.266Z,22.95
2018-05-29T04:23:12.887Z,23.18
2018-05-29T04:25:40.606Z,23.39
2018-05-29T04:28:08.268Z,23.57
2018-05-29T04:30:35.917Z,23.76
2018-05-29T04:33:03.539Z,23.94
2018-05-29T04:35:31.255Z,24.13
2018-05-29T04:37:58.923Z,24.15
2018-05-29T04:40:26.559Z,24.12
2018-05-29T04:42:54.179Z,24.12
2018-05-29T04:45:21.906Z,24.14
2018-05-29T04:47:49.579Z,24.15
2018-05-29T04:50:17.214Z,24.10
2018-05-29T04:52:44.894Z,24.01
2018-05-29T04:55:12.559Z,23.93
2018-05-29T04:57:40.171Z,23.87
2018-05-29T05:00:07.817Z,23.80
2018-05-29T05:02:35.565Z,23.75
2018-05-29T05:05:03.206Z,23.70
2018-05-29T05:07:30.869Z,23.66
2018-05-29T05:09:58.478Z,23.62
2018-05-29T05:12:26.120Z,23.61
2018-05-29T05:14:53.754Z,23.57
2018-05-29T05:17:21.390Z,23.54
2018-05-29T05:19:49.002Z,23.52
2018-05-29T05:22:16.643Z,23.50
2018-05-29T05:24:44.265Z,23.49
2018-05-29T05:27:11.968Z,23.49
2018-05-29T05:29:39.583Z,23.51
2018-05-29T05:32:07.223Z,23.54
2018-05-29T05:34:34.850Z,23.58
2018-05-29T05:37:02.481Z,23.62
2018-05-29T05:39:30.101Z,23.68
2018-05-29T05:41:57.734Z,23.73
2018-05-29T05:44:25.386Z,23.78
2018-05-29T05:46:53.053Z,23.83
2018-05-29T05:49:21.452Z,23.89
2018-05-29T05:51:49.215Z,23.96
2018-05-29T05:54:16.836Z,24.04
2018-05-29T05:56:44.531Z,24.12
2018-05-29T05:59:12.142Z,24.18
2018-05-29T06:01:39.770Z,24.24
2018-05-29T06:04:07.416Z,24.31
2018-05-29T06:06:35.079Z,24.37
2018-05-29T06:09:02.692Z,24.45
2018-05-29T06:11:30.407Z,24.54
2018-05-29T06:13:58.031Z,24.63
2018-05-29T06:16:25.716Z,24.73
2018-05-29T06:18:53.339Z,24.82
2018-05-29T06:21:20.946Z,24.91
2018-05-29T06:23:48.607Z,24.99
2018-05-29T06:26:16.280Z,25.07
2018-05-29T06:28:43.940Z,25.14
2018-05-29T06:31:11.559Z,25.23
2018-05-29T06:33:39.195Z,25.30
2018-05-29T06:36:06.810Z,25.36
2018-05-29T06:38:34.475Z,25.45
2018-05-29T06:41:02.082Z,25.54
2018-05-29T06:43:29.850Z,25.64
2018-05-29T06:45:57.566Z,25.72
2018-05-29T06:48:25.199Z,25.80
2018-05-29T06:50:52.819Z,25.89
2018-05-29T06:53:20.550Z,25.96
2018-05-29T06:55:48.171Z,26.04
2018-05-29T06:58:15.884Z,26.09
2018-05-29T07:00:43.498Z,26.14
2018-05-29T07:03:11.136Z,26.20
2018-05-29T07:05:38.762Z,26.27
2018-05-29T07:08:06.399Z,26.35
2018-05-29T07:10:34.085Z,26.45
2018-05-29T07:13:01.746Z,26.53
2018-05-29T07:15:29.419Z,26.62
2018-05-29T07:17:57.080Z,26.69
2018-05-29T07:20:24.701Z,26.74
2018-05-29T07:22:52.397Z,26.80
2018-05-29T07:25:20.058Z,26.85
2018-05-29T07:27:47.728Z,26.89
2018-05-29T07:30:15.335Z,26.95
2018-05-29T07:32:43.050Z,27.00
2018-05-29T07:35:10.816Z,27.07
2018-05-29T07:37:38.583Z,27.14
2018-05-29T07:40:06.223Z,27.23
2018-05-29T07:42:33.846Z,27.30
2018-05-29T07:45:01.491Z,27.37
2018-05-29T07:47:29.107Z,27.43
2018-05-29T07:49:56.752Z,27.50
2018-05-29T07:52:24.462Z,27.57
2018-05-29T07:54:52.119Z,27.64
2018-05-29T07:57:19.741Z,27.69
2018-05-29T07:59:47.401Z,27.74
2018-05-29T08:02:15.013Z,27.79
2018-05-29T08:04:42.756Z,27.85
2018-05-29T08:07:10.419Z,27.89
2018-05-29T08:09:38.054Z,27.93
2018-05-29T08:12:05.671Z,27.95
2018-05-29T08:14:33.303Z,27.99
2018-05-29T08:17:00.910Z,28.03
2018-05-29T08:19:28.550Z,28.07
2018-05-29T08:21:56.158Z,28.13
2018-05-29T08:24:23.791Z,28.19
2018-05-29T08:26:51.414Z,28.28
2018-05-29T08:29:19.060Z,28.35
2018-05-29T08:31:46.743Z,28.41
2018-05-29T08:34:14.398Z,28.48
2018-05-29T08:36:42.053Z,28.55
2018-05-29T08:39:09.689Z,28.61
2018-05-29T08:41:37.399Z,28.66
2018-05-29T08:44:05.078Z,28.72
2018-05-29T08:46:32.711Z,28.78
2018-05-29T08:49:00.365Z,28.79
2018-05-29T08:51:28.136Z,28.83
2018-05-29T08:53:55.752Z,28.87
2018-05-29T08:56:23.387Z,28.91
2018-05-29T08:58:50.990Z,28.95
2018-05-29T09:01:18.623Z,29.00
2018-05-29T09:03:46.230Z,29.05
2018-05-29T09:06:13.920Z,29.12
2018-05-29T09:08:41.690Z,29.19
2018-05-29T09:11:09.331Z,29.29
2018-05-29T09:13:36.943Z,29.35
2018-05-29T09:16:04.660Z,29.42
2018-05-29T09:18:32.328Z,29.47
2018-05-29T09:20:59.967Z,29.54
2018-05-29T09:23:27.647Z,29.59
2018-05-29T09:25:55.321Z,29.65
2018-05-29T09:28:22.940Z,29.67
2018-05-29T09:30:50.588Z,29.68
2018-05-29T09:33:18.195Z,29.70
2018-05-29T09:35:45.863Z,29.74
2018-05-29T09:38:13.530Z,29.78
2018-05-29T09:40:41.178Z,29.79
2018-05-29T09:43:08.785Z,29.81
2018-05-29T09:45:36.409Z,29.83
2018-05-29T09:48:04.033Z,29.82
2018-05-29T09:50:31.826Z,29.83
2018-05-29T09:52:59.452Z,29.84
2018-05-29T09:55:27.092Z,29.87
2018-05-29T09:57:54.824Z,29.92
2018-05-29T10:00:28.211Z,29.94
2018-05-29T10:02:55.827Z,29.98
2018-05-29T10:05:23.451Z,30.03
2018-05-29T10:07:51.054Z,30.07
2018-05-29T10:10:18.690Z,30.12
2018-05-29T10:12:46.327Z,30.18
2018-05-29T10:15:13.948Z,30.27
2018-05-29T10:17:41.642Z,30.38
2018-05-29T10:20:09.307Z,30.46
2018-05-29T10:22:36.938Z,30.52
2018-05-29T10:25:04.555Z,30.58
2018-05-29T10:27:32.191Z,30.62
2018-05-29T10:29:59.858Z,30.61
2018-05-29T10:32:27.514Z,30.65
2018-05-29T10:34:55.175Z,30.66
2018-05-29T10:37:22.812Z,30.66
2018-05-29T10:39:50.430Z,30.68
2018-05-29T10:42:18.062Z,30.72
2018-05-29T10:44:45.678Z,30.76
2018-05-29T10:47:13.312Z,30.80
2018-05-29T10:49:40.918Z,30.82
2018-05-29T10:52:08.610Z,30.86
2018-05-29T10:54:36.211Z,30.87
2018-05-29T10:57:03.843Z,30.89
2018-05-29T10:59:31.454Z,30.88
2018-05-29T11:01:59.111Z,30.87
2018-05-29T11:04:26.831Z,30.85
2018-05-29T11:06:54.483Z,30.86
2018-05-29T11:09:22.242Z,30.89
2018-05-29T11:11:49.903Z,30.89
2018-05-29T11:14:17.514Z,30.90
2018-05-29T11:16:45.239Z,30.92
2018-05-29T11:19:12.842Z,30.92
2018-05-29T11:21:40.476Z,30.92
2018-05-29T11:24:08.096Z,30.92
2018-05-29T11:26:35.739Z,30.95
2018-05-29T11:29:03.439Z,30.98
2018-05-29T11:31:31.052Z,30.98
2018-05-29T11:33:58.766Z,30.96
2018-05-29T11:36:26.366Z,30.97
2018-05-29T11:38:54.099Z,30.97
2018-05-29T11:41:21.709Z,30.97
2018-05-29T11:43:49.347Z,31.00
2018-05-29T11:46:16.963Z,31.04
2018-05-29T11:48:44.590Z,31.05
2018-05-29T11:51:12.298Z,31.07
2018-05-29T11:53:39.961Z,31.07
2018-05-29T11:56:07.722Z,31.09
2018-05-29T11:58:35.387Z,31.12
2018-05-29T12:01:02.999Z,31.13
2018-05-29T12:03:30.713Z,31.16
2018-05-29T12:05:58.331Z,31.18
2018-05-29T12:08:25.957Z,31.24
2018-05-29T12:10:53.594Z,31.30
2018-05-29T12:13:21.235Z,31.36
2018-05-29T12:15:48.852Z,31.39
2018-05-29T12:18:16.487Z,31.39
2018-05-29T12:20:44.103Z,31.40
2018-05-29T12:23:11.811Z,31.44
2018-05-29T12:25:39.424Z,31.48
2018-05-29T12:28:07.050Z,31.49
2018-05-29T12:30:34.690Z,31.52
2018-05-29T12:33:02.362Z,31.58
2018-05-29T12:35:29.975Z,31.62
2018-05-29T12:37:57.687Z,31.63
2018-05-29T12:40:25.361Z,31.60
2018-05-29T12:42:52.975Z,31.60
2018-05-29T12:45:20.616Z,31.61
2018-05-29T12:47:48.235Z,31.65
2018-05-29T12:50:15.882Z,31.70
2018-05-29T12:52:43.496Z,31.71
2018-05-29T12:55:11.132Z,31.69
2018-05-29T12:57:38.737Z,31.64
2018-05-29T13:00:06.532Z,31.56
2018-05-29T13:02:34.148Z,31.51
2018-05-29T13:05:01.860Z,31.51
2018-05-29T13:07:29.491Z,31.52
2018-05-29T13:09:57.142Z,31.54
2018-05-29T13:12:24.746Z,31.52
2018-05-29T13:14:52.383Z,31.51
2018-05-29T13:17:19.994Z,31.53
2018-05-29T13:19:47.624Z,31.52
2018-05-29T13:22:15.291Z,31.50
2018-05-29T13:24:42.935Z,31.51
2018-05-29T13:27:10.740Z,31.54
2018-05-29T13:29:38.376Z,31.57
2018-05-29T13:32:05.986Z,31.57
2018-05-29T13:34:33.711Z,31.58
2018-05-29T13:37:01.324Z,31.55
2018-05-29T13:39:28.949Z,31.57
2018-05-29T13:41:56.590Z,31.61
2018-05-29T13:44:24.224Z,31.63
2018-05-29T13:46:51.838Z,31.66
2018-05-29T13:49:19.674Z,31.68
2018-05-29T13:51:47.347Z,31.69
2018-05-29T13:54:15.008Z,31.70
2018-05-29T13:56:42.660Z,31.73
2018-05-29T13:59:10.326Z,31.73
2018-05-29T14:01:38.398Z,31.71
2018-05-29T14:04:06.011Z,31.70
2018-05-29T14:06:33.646Z,31.71
2018-05-29T14:09:01.254Z,31.73
2018-05-29T14:11:28.886Z,31.75
2018-05-29T14:13:56.606Z,31.77
2018-05-29T14:16:24.264Z,31.81
2018-05-29T14:18:51.929Z,31.83
2018-05-29T14:21:19.603Z,31.84
2018-05-29T14:23:47.211Z,31.84
2018-05-29T14:26:14.914Z,31.84
2018-05-29T14:28:42.576Z,31.86
2018-05-29T14:31:10.213Z,31.85
2018-05-29T14:33:37.814Z,31.84
2018-05-29T14:36:05.439Z,31.85
2018-05-29T14:38:33.154Z,31.88
2018-05-29T14:41:00.787Z,31.90
2018-05-29T14:43:29.167Z,31.93
2018-05-29T14:45:56.798Z,31.96
2018-05-29T14:48:24.500Z,31.98
2018-05-29T14:50:52.145Z,31.99
2018-05-29T14:53:19.813Z,32.00
2018-05-29T14:55:47.481Z,32.03
2018-05-29T14:58:15.082Z,32.04
2018-05-29T15:00:42.706Z,32.05
2018-05-29T15:03:10.319Z,32.06
2018-05-29T15:05:37.955Z,32.07
2018-05-29T15:08:05.571Z,32.09
2018-05-29T15:10:33.208Z,32.10
2018-05-29T15:13:00.811Z,32.12
2018-05-29T15:15:28.414Z,32.12
2018-05-29T15:17:56.048Z,32.09
2018-05-29T15:20:23.703Z,32.07
2018-05-29T15:22:51.350Z,32.03
2018-05-29T15:25:19.014Z,32.01
2018-05-29T15:27:46.651Z,32.02
2018-05-29T15:30:14.269Z,32.02
2018-05-29T15:32:41.910Z,32.03
2018-05-29T15:35:09.562Z,32.03
2018-05-29T15:37:37.741Z,32.04
2018-05-29T15:40:05.346Z,32.03
2018-05-29T15:42:33.067Z,32.02
2018-05-29T15:45:00.673Z,32.02
2018-05-29T15:47:28.300Z,32.03
2018-05-29T15:49:55.910Z,32.02
2018-05-29T15:52:23.543Z,32.02
2018-05-29T15:54:51.163Z,31.99
2018-05-29T15:57:18.790Z,31.99
2018-05-29T15:59:46.494Z,31.99
2018-05-29T16:02:14.163Z,31.98
2018-05-29T16:04:41.776Z,31.99
2018-05-29T16:07:09.415Z,31.99
2018-05-29T16:09:37.038Z,31.98
2018-05-29T16:12:04.707Z,31.97
2018-05-29T16:14:32.367Z,31.96
2018-05-29T16:17:00.010Z,31.97
2018-05-29T16:19:27.618Z,31.96
2018-05-29T16:21:55.251Z,31.95
2018-05-29T16:24:22.916Z,31.98
2018-05-29T16:26:50.679Z,32.15
2018-05-29T16:29:18.294Z,32.39
2018-05-29T16:31:45.902Z,32.66
2018-05-29T16:34:13.539Z,32.95
2018-05-29T16:36:41.218Z,33.22
2018-05-29T16:39:08.887Z,33.46
2018-05-29T16:41:36.503Z,33.74
2018-05-29T16:44:04.208Z,33.96
2018-05-29T16:46:31.880Z,34.12
2018-05-29T16:48:59.545Z,34.23
2018-05-29T16:51:27.145Z,34.35
2018-05-29T16:53:54.864Z,34.44
2018-05-29T16:56:22.529Z,34.57
2018-05-29T16:58:50.177Z,34.69
2018-05-29T17:01:17.788Z,34.78
2018-05-29T17:03:45.422Z,34.89
2018-05-29T17:06:13.048Z,35.02
2018-05-29T17:08:40.682Z,35.12
2018-05-29T17:11:08.297Z,35.18
2018-05-29T17:13:35.952Z,35.21
2018-05-29T17:16:03.628Z,35.27
2018-05-29T17:18:31.263Z,35.31
2018-05-29T17:20:58.940Z,35.35
2018-05-29T17:23:26.598Z,35.39
2018-05-29T17:25:54.207Z,35.42
2018-05-29T17:28:21.839Z,35.43
2018-05-29T17:30:49.455Z,35.43
2018-05-29T17:33:17.142Z,35.42
2018-05-29T17:35:44.806Z,35.41
2018-05-29T17:38:12.487Z,35.43
2018-05-29T17:40:40.111Z,35.36
2018-05-29T17:43:07.727Z,35.17
2018-05-29T17:45:35.456Z,34.95
2018-05-29T17:48:03.076Z,34.58
2018-05-29T17:50:30.736Z,34.16
2018-05-29T17:52:58.354Z,33.72
2018-05-29T17:55:26.003Z,33.27
2018-05-29T17:57:53.610Z,32.85
2018-05-29T18:00:21.331Z,32.44
2018-05-29T18:02:48.947Z,32.05
2018-05-29T18:05:16.650Z,31.70
2018-05-29T18:07:44.253Z,31.37
2018-05-29T18:10:11.891Z,31.07
2018-05-29T18:12:39.499Z,30.79
2018-05-29T18:15:07.151Z,30.54
2018-05-29T18:17:34.771Z,30.32
2018-05-29T18:20:02.428Z,30.13
2018-05-29T18:22:30.040Z,29.96
2018-05-29T18:24:57.679Z,29.78
2018-05-29T18:27:25.308Z,29.63
2018-05-29T18:29:52.934Z,29.50
2018-05-29T18:32:20.560Z,29.36
2018-05-29T18:34:48.192Z,29.20
2018-05-29T18:37:15.811Z,29.05
2018-05-29T18:39:43.509Z,28.93
2018-05-29T18:42:11.171Z,28.81
2018-05-29T18:44:38.868Z,28.69
2018-05-29T18:47:06.495Z,28.56
2018-05-29T18:49:34.122Z,28.42
2018-05-29T18:52:01.773Z,28.26
2018-05-29T18:54:29.491Z,28.09
2018-05-29T18:56:57.105Z,27.90
2018-05-29T18:59:24.819Z,27.73
2018-05-29T19:01:52.461Z,27.58
2018-05-29T19:04:20.131Z,27.45
2018-05-29T19:06:47.796Z,27.32
2018-05-29T19:09:15.416Z,27.18
2018-05-29T19:11:43.046Z,27.07
2018-05-29T19:14:10.650Z,26.96
2018-05-29T19:16:38.356Z,26.82
2018-05-29T19:19:05.972Z,26.70
2018-05-29T19:21:33.671Z,26.58
2018-05-29T19:24:01.287Z,26.48
2018-05-29T19:26:28.946Z,26.38
2018-05-29T19:28:56.615Z,26.28
2018-05-29T19:31:24.221Z,26.17
2018-05-29T19:33:51.838Z,26.08
2018-05-29T19:36:19.471Z,26.01
2018-05-29T19:38:47.112Z,25.93
2018-05-29T19:41:14.738Z,25.86
2018-05-29T19:43:42.356Z,25.77
2018-05-29T19:46:09.991Z,25.70
2018-05-29T19:48:37.640Z,25.63
2018-05-29T19:51:05.278Z,25.54
2018-05-29T19:53:32.894Z,25.46
2018-05-29T19:56:00.626Z,25.37
2018-05-29T19:58:28.297Z,25.24
2018-05-29T20:00:55.942Z,25.12
2018-05-29T20:03:30.183Z,25.02
2018-05-29T20:05:57.842Z,24.90
2018-05-29T20:08:25.463Z,24.76
2018-05-29T20:10:53.160Z,24.65
2018-05-29T20:13:20.781Z,24.54
2018-05-29T20:15:48.413Z,24.43
2018-05-29T20:18:16.139Z,24.34
2018-05-29T20:20:43.819Z,24.26
2018-05-29T20:23:11.456Z,24.18
2018-05-29T20:25:39.140Z,24.12
2018-05-29T20:28:06.780Z,24.07
2018-05-29T20:30:34.394Z,24.01
2018-05-29T20:33:02.022Z,23.96
2018-05-29T20:35:29.639Z,23.90
2018-05-29T20:37:57.343Z,23.85
2018-05-29T20:40:25.004Z,23.77
2018-05-29T20:42:52.657Z,23.69
2018-05-29T20:45:20.272Z,23.60
2018-05-29T20:47:47.912Z,23.53
2018-05-29T20:50:15.542Z,23.46
2018-05-29T20:52:43.223Z,23.39
2018-05-29T20:55:10.876Z,23.35
2018-05-29T20:57:39.096Z,23.28
2018-05-29T21:00:06.706Z,23.22
2018-05-29T21:02:34.375Z,23.17
2018-05-29T21:05:02.032Z,23.09
2018-05-29T21:07:29.662Z,23.02
2018-05-29T21:09:57.354Z,22.93
2018-05-29T21:12:24.986Z,22.85
2018-05-29T21:14:52.598Z,22.74
2018-05-29T21:17:20.239Z,22.66
2018-05-29T21:19:47.908Z,22.59
2018-05-29T21:22:15.617Z,22.49
2018-05-29T21:24:43.190Z,22.43
2018-05-29T21:27:10.830Z,22.36
2018-05-29T21:29:38.451Z,22.25
2018-05-29T21:32:06.054Z,22.14
2018-05-29T21:34:33.695Z,22.04
2018-05-29T21:37:01.307Z,21.95
2018-05-29T21:39:28.953Z,21.85
2018-05-29T21:41:56.567Z,21.75
2018-05-29T21:44:24.226Z,21.66
2018-05-29T21:46:51.834Z,21.61
2018-05-29T21:49:19.537Z,21.53
2018-05-29T21:51:47.202Z,21.42
2018-05-29T21:54:14.836Z,21.32
2018-05-29T21:56:42.451Z,21.22
2018-05-29T21:59:10.079Z,21.14
2018-05-29T22:01:37.686Z,21.07
2018-05-29T22:04:05.411Z,20.97
2018-05-29T22:06:33.027Z,20.90
2018-05-29T22:09:00.738Z,20.84
2018-05-29T22:11:28.407Z,20.80
2018-05-29T22:13:56.068Z,20.75
2018-05-29T22:16:23.733Z,20.69
2018-05-29T22:18:51.360Z,20.63
2018-05-29T22:21:19.001Z,20.58
2018-05-29T22:23:46.630Z,20.55
2018-05-29T22:26:14.239Z,20.50
2018-05-29T22:28:41.871Z,20.45
2018-05-29T22:31:09.599Z,20.39
2018-05-29T22:33:37.230Z,20.35
2018-05-29T22:36:04.847Z,20.32
2018-05-29T22:38:32.486Z,20.28
2018-05-29T22:41:00.147Z,20.23
2018-05-29T22:43:27.797Z,20.18
2018-05-29T22:45:55.466Z,20.14
2018-05-29T22:48:23.070Z,20.10
2018-05-29T22:50:50.703Z,20.07
2018-05-29T22:53:18.317Z,20.03
2018-05-29T22:55:45.951Z,20.02
2018-05-29T22:58:13.558Z,20.01
2018-05-29T23:00:41.199Z,19.99
2018-05-29T23:03:08.908Z,19.96
2018-05-29T23:05:36.558Z,19.95
2018-05-29T23:08:04.184Z,19.93
2018-05-29T23:10:31.814Z,19.91
2018-05-29T23:12:59.414Z,19.90
2018-05-29T23:15:27.046Z,19.89
2018-05-29T23:17:54.671Z,19.87
2018-05-29T23:20:22.302Z,19.86
2018-05-29T23:22:49.910Z,19.82
2018-05-29T23:25:17.655Z,19.80
2018-05-29T23:27:45.315Z,19.79
2018-05-29T23:30:12.974Z,19.76
2018-05-29T23:32:40.639Z,19.74
2018-05-29T23:35:08.303Z,19.70
2018-05-29T23:37:35.962Z,19.64
2018-05-29T23:40:03.600Z,19.59
2018-05-29T23:42:31.211Z,19.56
2018-05-29T23:44:58.847Z,19.53
2018-05-29T23:47:26.515Z,19.51
2018-05-29T23:49:54.156Z,19.50
2018-05-29T23:52:21.768Z,19.49
2018-05-29T23:54:49.495Z,19.47
2018-05-29T23:57:17.106Z,19.45
2018-05-29T23:59:44.724Z,19.41
